createdAt,value
2023-08-12T00:00:25.535Z,73.200000
2023-08-12T00:05:17.447Z,72.800000
2023-08-12T00:10:17.336Z,72.600000
2023-08-12T00:15:19.375Z,72.200000
2023-08-12T00:20:25.589Z,71.800000
2023-08-12T00:25:25.564Z,71.400000
2023-08-12T00:30:19.431Z,71.200000
2023-08-12T00:35:19.326Z,71.000000
2023-08-12T00:40:19.286Z,70.900000
2023-08-12T00:45:25.621Z,70.700000
2023-08-12T00:50:25.610Z,70.800000
2023-08-12T00:55:25.641Z,71.100000
2023-08-12T01:00:17.430Z,71.300000
2023-08-12T01:05:19.382Z,71.200000
2023-08-12T01:10:19.364Z,71.100000
2023-08-12T01:15:19.367Z,70.800000
2023-08-12T01:20:19.382Z,70.600000
2023-08-12T01:25:25.747Z,70.400000
2023-08-12T01:30:19.401Z,70.900000
2023-08-12T01:35:25.668Z,71.000000
2023-08-12T01:40:19.417Z,70.700000
2023-08-12T01:45:25.653Z,70.400000
2023-08-12T01:50:17.480Z,70.000000
2023-08-12T01:55:17.506Z,69.800000
2023-08-12T02:00:19.465Z,69.600000
2023-08-12T02:05:25.697Z,69.400000
2023-08-12T02:10:19.503Z,69.200000
2023-08-12T02:15:25.684Z,69.000000
2023-08-12T02:20:25.647Z,68.800000
2023-08-12T02:25:25.846Z,68.700000
2023-08-12T02:30:19.510Z,68.400000
2023-08-12T02:35:25.711Z,68.300000
2023-08-12T02:40:23.674Z,68.100000
2023-08-12T02:45:17.464Z,68.100000
2023-08-12T02:50:17.509Z,68.100000
2023-08-12T02:55:23.789Z,67.400000
2023-08-12T03:00:23.765Z,66.900000
2023-08-12T03:05:17.514Z,66.500000
2023-08-12T03:10:23.738Z,66.100000
2023-08-12T03:15:23.736Z,65.900000
2023-08-12T03:20:23.948Z,65.900000
2023-08-12T03:25:15.620Z,66.400000
2023-08-12T03:30:23.713Z,66.300000
2023-08-12T03:35:20.042Z,65.600000
2023-08-12T03:40:17.527Z,65.200000
2023-08-12T03:45:23.863Z,65.000000
2023-08-12T03:50:17.522Z,64.900000
2023-08-12T03:55:23.822Z,64.800000
2023-08-12T04:00:18.930Z,64.700000
2023-08-12T04:05:25.049Z,64.600000
2023-08-12T04:10:18.805Z,64.200000
2023-08-12T04:15:18.840Z,64.000000
2023-08-12T04:20:18.901Z,63.800000
2023-08-12T04:25:25.081Z,63.800000
2023-08-12T04:30:18.871Z,63.600000
2023-08-12T04:35:25.174Z,63.400000
2023-08-12T04:40:19.221Z,63.200000
2023-08-12T04:45:16.951Z,63.100000
2023-08-12T04:50:16.776Z,63.100000
2023-08-12T04:55:18.849Z,62.900000
2023-08-12T05:00:19.000Z,63.000000
2023-08-12T05:05:18.929Z,63.000000
2023-08-12T05:10:25.246Z,62.900000
2023-08-12T05:15:18.884Z,62.900000
2023-08-12T05:20:18.902Z,63.000000
2023-08-12T05:25:25.227Z,62.900000
2023-08-12T05:30:25.276Z,63.100000
2023-08-12T05:35:18.935Z,63.200000
2023-08-12T05:40:16.989Z,63.000000
2023-08-12T05:45:18.990Z,62.900000
2023-08-12T05:50:18.972Z,62.600000
2023-08-12T05:55:25.143Z,62.500000
2023-08-12T06:00:25.234Z,62.500000
2023-08-12T06:05:25.162Z,62.400000
2023-08-12T06:10:25.160Z,62.400000
2023-08-12T06:15:19.069Z,62.400000
2023-08-12T06:20:25.357Z,62.300000
2023-08-12T06:25:25.169Z,61.900000
2023-08-12T06:30:17.097Z,61.600000
2023-08-12T06:35:17.054Z,61.300000
2023-08-12T06:40:18.993Z,61.200000
2023-08-12T06:45:25.255Z,61.100000
2023-08-12T06:50:25.258Z,61.100000
2023-08-12T06:55:18.990Z,61.100000
2023-08-12T07:00:19.106Z,61.100000
2023-08-12T07:05:19.040Z,60.900000
2023-08-12T07:10:20.420Z,61.400000
2023-08-12T07:15:25.453Z,62.000000
2023-08-12T07:20:25.586Z,62.200000
2023-08-12T07:25:17.168Z,61.800000
2023-08-12T07:30:17.095Z,61.400000
2023-08-12T07:35:25.455Z,61.100000
2023-08-12T07:40:19.142Z,60.800000
2023-08-12T07:45:19.136Z,60.600000
2023-08-12T07:50:25.356Z,60.500000
2023-08-12T07:55:27.364Z,60.400000
2023-08-12T08:00:25.365Z,60.300000
2023-08-12T08:05:19.193Z,60.200000
2023-08-12T08:10:19.037Z,60.200000
2023-08-12T08:15:25.343Z,60.000000
2023-08-12T08:20:17.216Z,59.700000
2023-08-12T08:25:25.458Z,59.500000
2023-08-12T08:30:19.146Z,59.400000
2023-08-12T08:35:25.512Z,59.300000
2023-08-12T08:40:25.349Z,59.300000
2023-08-12T08:45:25.328Z,59.100000
2023-08-12T08:50:25.334Z,59.200000
2023-08-12T08:55:21.072Z,59.100000
2023-08-12T09:00:19.206Z,59.000000
2023-08-12T09:05:19.289Z,59.000000
2023-08-12T09:10:17.223Z,59.000000
2023-08-12T09:15:17.342Z,58.900000
2023-08-12T09:20:25.604Z,59.100000
2023-08-12T09:25:25.438Z,59.300000
2023-08-12T09:30:19.212Z,59.400000
2023-08-12T09:35:19.256Z,59.500000
2023-08-12T09:40:25.594Z,59.600000
2023-08-12T09:45:25.454Z,59.600000
2023-08-12T09:50:25.378Z,59.700000
2023-08-12T09:55:19.290Z,59.800000
2023-08-12T10:00:19.308Z,59.800000
2023-08-12T10:05:17.381Z,59.600000
2023-08-12T10:10:17.206Z,59.300000
2023-08-12T10:15:19.394Z,59.100000
2023-08-12T10:20:19.332Z,59.000000
2023-08-12T10:25:19.348Z,59.100000
2023-08-12T10:30:25.611Z,59.100000
2023-08-12T10:35:25.595Z,59.000000
2023-08-12T10:40:25.583Z,59.100000
2023-08-12T10:45:25.607Z,59.100000
2023-08-12T10:50:25.538Z,59.300000
2023-08-12T10:55:25.829Z,59.400000
2023-08-12T11:00:17.372Z,59.400000
2023-08-12T11:05:25.656Z,59.600000
2023-08-12T11:10:25.632Z,60.100000
2023-08-12T11:15:25.562Z,61.200000
2023-08-12T11:20:19.388Z,62.400000
2023-08-12T11:25:25.739Z,63.800000
2023-08-12T11:30:25.644Z,65.600000
2023-08-12T11:35:19.404Z,65.700000
2023-08-12T11:40:25.703Z,66.400000
2023-08-12T11:45:25.610Z,67.100000
2023-08-12T11:50:17.449Z,66.600000
2023-08-12T11:55:17.466Z,67.900000
2023-08-12T12:00:25.735Z,69.400000
2023-08-12T12:05:25.734Z,70.300000
2023-08-12T12:10:19.462Z,70.200000
2023-08-12T12:16:02.909Z,70.600000
2023-08-12T12:20:25.720Z,71.600000
2023-08-12T12:25:19.614Z,72.500000
2023-08-12T12:30:15.598Z,71.700000
2023-08-12T12:35:25.731Z,70.700000
2023-08-12T12:40:24.779Z,69.700000
2023-08-12T12:45:18.531Z,69.400000
2023-08-12T12:50:24.747Z,69.400000
2023-08-12T12:55:24.732Z,69.500000
2023-08-12T13:00:24.715Z,69.700000
2023-08-12T13:05:16.553Z,70.200000
2023-08-12T13:10:16.797Z,70.600000
2023-08-12T13:15:24.748Z,70.800000
2023-08-12T13:20:18.596Z,71.200000
2023-08-12T13:25:24.830Z,71.900000
2023-08-12T13:30:24.876Z,73.600000
2023-08-12T13:35:18.544Z,75.000000
2023-08-12T13:40:24.925Z,75.800000
2023-08-12T13:45:25.058Z,76.400000
2023-08-12T13:50:24.811Z,77.500000
2023-08-12T13:55:16.736Z,78.100000
2023-08-12T14:00:16.593Z,77.600000
2023-08-12T14:05:18.570Z,77.300000
2023-08-12T14:10:24.821Z,77.000000
2023-08-12T14:15:18.585Z,77.100000
2023-08-12T14:20:18.560Z,77.500000
2023-08-12T14:25:24.898Z,77.300000
2023-08-12T14:30:18.717Z,77.100000
2023-08-12T14:35:25.013Z,77.400000
2023-08-12T14:40:18.687Z,78.000000
2023-08-12T14:45:18.566Z,78.200000
2023-08-12T14:50:16.763Z,78.600000
2023-08-12T14:55:16.629Z,78.700000
2023-08-12T15:00:25.020Z,78.900000
2023-08-12T15:05:18.663Z,78.200000
2023-08-12T15:10:24.926Z,78.900000
2023-08-12T15:15:18.669Z,79.000000
2023-08-12T15:20:24.955Z,79.000000
2023-08-12T15:25:18.708Z,79.000000
2023-08-12T15:30:25.050Z,79.100000
2023-08-12T15:35:24.942Z,79.500000
2023-08-12T15:40:16.754Z,79.200000
2023-08-12T15:45:16.803Z,79.300000
2023-08-12T15:50:18.712Z,80.000000
2023-08-12T15:55:18.702Z,80.700000
2023-08-12T16:00:24.957Z,80.800000
2023-08-12T16:05:24.917Z,81.000000
2023-08-12T16:10:18.901Z,80.900000
2023-08-12T16:15:18.786Z,82.200000
2023-08-12T16:20:25.032Z,81.400000
2023-08-12T16:25:18.710Z,82.700000
2023-08-12T16:30:25.128Z,83.900000
2023-08-12T16:35:16.863Z,83.000000
2023-08-12T16:40:16.864Z,82.800000
2023-08-12T16:45:18.799Z,82.700000
2023-08-12T16:50:24.955Z,82.500000
2023-08-12T16:55:25.050Z,81.400000
2023-08-12T17:00:18.786Z,79.800000
2023-08-12T17:05:18.815Z,80.000000
2023-08-12T17:10:18.903Z,80.700000
2023-08-12T17:15:18.852Z,81.900000
2023-08-12T17:20:25.073Z,82.000000
2023-08-12T17:25:18.870Z,83.500000
2023-08-12T17:30:16.919Z,83.600000
2023-08-12T17:35:16.927Z,84.000000
2023-08-12T17:40:18.923Z,84.600000
2023-08-12T17:45:18.946Z,84.600000
2023-08-12T17:50:19.004Z,84.000000
2023-08-12T17:55:18.905Z,84.800000
2023-08-12T18:00:25.176Z,84.200000
2023-08-12T18:05:25.101Z,83.400000
2023-08-12T18:10:25.239Z,83.200000
2023-08-12T18:15:18.904Z,83.100000
2023-08-12T18:20:16.980Z,82.900000
2023-08-12T18:25:17.120Z,82.300000
2023-08-12T18:30:25.181Z,82.400000
2023-08-12T18:35:25.142Z,82.200000
2023-08-12T18:40:25.240Z,82.700000
2023-08-12T18:45:25.396Z,82.500000
2023-08-12T18:50:25.202Z,82.900000
2023-08-12T18:55:19.021Z,82.700000
2023-08-12T19:00:19.010Z,82.300000
2023-08-12T19:05:25.154Z,81.900000
2023-08-12T19:10:25.249Z,81.800000
2023-08-12T19:15:17.098Z,81.500000
2023-08-12T19:20:17.151Z,81.200000
2023-08-12T19:25:19.046Z,81.200000
2023-08-12T19:30:25.306Z,81.200000
2023-08-12T19:35:25.219Z,80.900000
2023-08-12T19:40:25.275Z,81.000000
2023-08-12T19:45:19.107Z,81.200000
2023-08-12T19:50:19.174Z,81.600000
2023-08-12T19:55:25.346Z,81.500000
2023-08-12T20:00:25.373Z,81.400000
2023-08-12T20:05:25.321Z,80.700000
2023-08-12T20:10:17.212Z,80.300000
2023-08-12T20:15:25.382Z,80.300000
2023-08-12T20:20:25.485Z,80.100000
2023-08-12T20:25:25.422Z,79.600000
2023-08-12T20:30:25.398Z,79.400000
2023-08-12T20:35:25.628Z,79.300000
2023-08-12T20:40:25.402Z,79.100000
2023-08-12T20:45:19.195Z,78.800000
2023-08-12T20:50:19.147Z,78.500000
2023-08-12T20:55:25.417Z,78.200000
2023-08-12T21:00:17.237Z,77.800000
2023-08-12T21:05:17.186Z,77.600000
2023-08-12T21:10:25.544Z,77.500000
2023-08-12T21:15:19.179Z,77.300000
2023-08-12T21:20:25.464Z,77.300000
2023-08-12T21:25:25.933Z,77.200000
2023-08-12T21:30:25.458Z,77.200000
2023-08-12T21:35:19.172Z,77.200000
2023-08-12T21:40:25.517Z,77.300000
2023-08-12T21:45:19.169Z,77.300000
2023-08-12T21:50:25.542Z,77.300000
2023-08-12T21:55:17.308Z,77.500000
2023-08-12T22:00:17.372Z,77.500000
2023-08-12T22:05:19.342Z,77.500000
2023-08-12T22:10:19.482Z,77.400000
2023-08-12T22:15:25.613Z,77.300000
2023-08-12T22:20:19.250Z,77.300000
2023-08-12T22:25:25.533Z,77.200000
2023-08-12T22:30:25.631Z,77.000000
2023-08-12T22:35:19.279Z,76.900000
2023-08-12T22:40:25.622Z,76.900000
2023-08-12T22:45:17.276Z,76.800000
2023-08-12T22:50:17.336Z,76.700000
2023-08-12T22:55:19.344Z,76.500000
2023-08-12T23:00:25.685Z,76.300000
2023-08-12T23:05:25.581Z,76.100000
2023-08-12T23:10:25.573Z,75.900000
2023-08-12T23:15:25.621Z,75.500000
2023-08-12T23:20:19.334Z,75.200000
2023-08-12T23:25:25.609Z,74.800000
2023-08-12T23:30:25.630Z,74.500000
2023-08-12T23:35:19.332Z,74.200000
2023-08-12T23:40:17.497Z,74.200000
2023-08-12T23:45:17.390Z,74.300000
2023-08-12T23:50:19.358Z,74.200000
2023-08-12T23:55:19.439Z,74.100000
